sensor_id;sensor_type;location;lat;lon;timestamp;P1;durP1;ratioP1;P2;durP2;ratioP2
801;SDS011;383;48.766;9.270;2022-09-24T00:00:43;10.90;;;8.13;;
801;SDS011;383;48.766;9.270;2022-09-24T00:03:16;10.10;;;6.82;;
801;SDS011;383;48.766;9.270;2022-09-24T00:05:43;12.23;;;7.03;;
801;SDS011;383;48.766;9.270;2022-09-24T00:08:11;16.17;;;7.68;;
801;SDS011;383;48.766;9.270;2022-09-24T00:10:39;12.85;;;7.20;;
801;SDS011;383;48.766;9.270;2022-09-24T00:13:09;12.32;;;7.07;;
801;SDS011;383;48.766;9.270;2022-09-24T00:15:37;14.30;;;7.57;;
801;SDS011;383;48.766;9.270;2022-09-24T00:18:06;9.80;;;7.03;;
801;SDS011;383;48.766;9.270;2022-09-24T00:20:35;14.05;;;9.00;;
801;SDS011;383;48.766;9.270;2022-09-24T00:23:03;12.13;;;8.30;;
801;SDS011;383;48.766;9.270;2022-09-24T00:25:30;17.83;;;9.00;;
801;SDS011;383;48.766;9.270;2022-09-24T00:28:15;18.63;;;9.43;;
801;SDS011;383;48.766;9.270;2022-09-24T00:30:42;14.15;;;8.73;;
801;SDS011;383;48.766;9.270;2022-09-24T00:33:11;18.25;;;11.23;;
801;SDS011;383;48.766;9.270;2022-09-24T00:35:37;18.80;;;12.00;;
801;SDS011;383;48.766;9.270;2022-09-24T00:38:05;19.65;;;13.75;;
801;SDS011;383;48.766;9.270;2022-09-24T00:40:33;18.27;;;13.13;;
801;SDS011;383;48.766;9.270;2022-09-24T00:45:48;26.90;;;13.98;;
801;SDS011;383;48.766;9.270;2022-09-24T00:48:17;24.77;;;13.07;;
801;SDS011;383;48.766;9.270;2022-09-24T00:50:45;24.05;;;12.30;;
801;SDS011;383;48.766;9.270;2022-09-24T00:53:13;19.00;;;12.38;;
801;SDS011;383;48.766;9.270;2022-09-24T00:55:43;21.27;;;12.27;;
801;SDS011;383;48.766;9.270;2022-09-24T00:58:12;18.95;;;12.32;;
801;SDS011;383;48.766;9.270;2022-09-24T01:00:40;22.70;;;11.85;;
801;SDS011;383;48.766;9.270;2022-09-24T01:03:09;17.25;;;11.38;;
801;SDS011;383;48.766;9.270;2022-09-24T01:05:40;23.05;;;10.60;;
801;SDS011;383;48.766;9.270;2022-09-24T01:08:09;18.40;;;11.82;;
801;SDS011;383;48.766;9.270;2022-09-24T01:10:39;20.88;;;12.40;;
801;SDS011;383;48.766;9.270;2022-09-24T01:13:32;30.92;;;14.18;;
801;SDS011;383;48.766;9.270;2022-09-24T01:16:05;17.65;;;11.88;;
801;SDS011;383;48.766;9.270;2022-09-24T01:18:42;27.85;;;12.35;;
801;SDS011;383;48.766;9.270;2022-09-24T01:21:21;20.42;;;12.50;;
801;SDS011;383;48.766;9.270;2022-09-24T01:23:58;21.80;;;13.73;;
801;SDS011;383;48.766;9.270;2022-09-24T01:26:48;22.52;;;13.20;;
801;SDS011;383;48.766;9.270;2022-09-24T01:32:19;21.15;;;11.98;;
801;SDS011;383;48.766;9.270;2022-09-24T01:34:51;22.73;;;13.13;;
801;SDS011;383;48.766;9.270;2022-09-24T01:37:22;18.15;;;13.00;;
801;SDS011;383;48.766;9.270;2022-09-24T01:39:52;21.05;;;12.48;;
801;SDS011;383;48.766;9.270;2022-09-24T01:42:21;19.90;;;11.82;;
801;SDS011;383;48.766;9.270;2022-09-24T01:44:52;19.42;;;11.48;;
801;SDS011;383;48.766;9.270;2022-09-24T01:47:21;20.40;;;12.15;;
801;SDS011;383;48.766;9.270;2022-09-24T01:49:54;16.58;;;11.82;;
801;SDS011;383;48.766;9.270;2022-09-24T01:52:21;18.88;;;11.13;;
801;SDS011;383;48.766;9.270;2022-09-24T01:54:51;18.02;;;11.07;;
801;SDS011;383;48.766;9.270;2022-09-24T01:57:21;18.65;;;12.05;;
801;SDS011;383;48.766;9.270;2022-09-24T01:59:53;23.73;;;13.27;;
801;SDS011;383;48.766;9.270;2022-09-24T02:02:24;17.45;;;12.02;;
801;SDS011;383;48.766;9.270;2022-09-24T02:04:57;17.08;;;11.25;;
801;SDS011;383;48.766;9.270;2022-09-24T02:07:28;24.50;;;13.43;;
801;SDS011;383;48.766;9.270;2022-09-24T02:10:00;22.50;;;11.73;;
801;SDS011;383;48.766;9.270;2022-09-24T02:12:28;21.25;;;13.05;;
801;SDS011;383;48.766;9.270;2022-09-24T02:15:02;23.67;;;15.60;;
801;SDS011;383;48.766;9.270;2022-09-24T02:17:33;28.70;;;12.80;;
801;SDS011;383;48.766;9.270;2022-09-24T02:20:03;27.05;;;12.98;;
801;SDS011;383;48.766;9.270;2022-09-24T02:22:34;22.95;;;13.77;;
801;SDS011;383;48.766;9.270;2022-09-24T02:25:03;20.95;;;11.95;;
801;SDS011;383;48.766;9.270;2022-09-24T02:27:34;22.65;;;12.77;;
801;SDS011;383;48.766;9.270;2022-09-24T02:30:02;18.48;;;11.00;;
801;SDS011;383;48.766;9.270;2022-09-24T02:32:33;21.08;;;12.38;;
801;SDS011;383;48.766;9.270;2022-09-24T02:35:02;20.25;;;13.05;;
801;SDS011;383;48.766;9.270;2022-09-24T02:37:33;17.40;;;12.27;;
801;SDS011;383;48.766;9.270;2022-09-24T02:40:01;22.00;;;12.65;;
801;SDS011;383;48.766;9.270;2022-09-24T02:42:29;18.90;;;11.68;;
801;SDS011;383;48.766;9.270;2022-09-24T02:44:56;17.60;;;12.18;;
801;SDS011;383;48.766;9.270;2022-09-24T02:47:25;21.45;;;11.98;;
801;SDS011;383;48.766;9.270;2022-09-24T02:49:53;20.48;;;12.25;;
801;SDS011;383;48.766;9.270;2022-09-24T02:52:20;22.30;;;12.70;;
801;SDS011;383;48.766;9.270;2022-09-24T02:54:46;18.90;;;12.35;;
801;SDS011;383;48.766;9.270;2022-09-24T02:57:14;21.40;;;11.82;;
801;SDS011;383;48.766;9.270;2022-09-24T02:59:41;20.98;;;12.95;;
801;SDS011;383;48.766;9.270;2022-09-24T03:02:07;19.75;;;11.70;;
801;SDS011;383;48.766;9.270;2022-09-24T03:04:35;16.30;;;11.63;;
801;SDS011;383;48.766;9.270;2022-09-24T03:07:03;18.17;;;12.15;;
801;SDS011;383;48.766;9.270;2022-09-24T03:09:29;21.77;;;12.48;;
801;SDS011;383;48.766;9.270;2022-09-24T03:11:56;17.85;;;12.52;;
801;SDS011;383;48.766;9.270;2022-09-24T03:14:24;25.25;;;12.80;;
801;SDS011;383;48.766;9.270;2022-09-24T03:16:51;16.70;;;12.05;;
801;SDS011;383;48.766;9.270;2022-09-24T03:19:18;21.67;;;12.13;;
801;SDS011;383;48.766;9.270;2022-09-24T03:21:46;19.30;;;13.20;;
801;SDS011;383;48.766;9.270;2022-09-24T03:24:12;20.17;;;12.55;;
801;SDS011;383;48.766;9.270;2022-09-24T03:26:39;19.55;;;12.23;;
801;SDS011;383;48.766;9.270;2022-09-24T03:29:06;23.73;;;13.80;;
801;SDS011;383;48.766;9.270;2022-09-24T03:31:33;18.65;;;13.55;;
801;SDS011;383;48.766;9.270;2022-09-24T03:33:59;18.97;;;12.67;;
801;SDS011;383;48.766;9.270;2022-09-24T03:36:26;20.77;;;13.07;;
801;SDS011;383;48.766;9.270;2022-09-24T03:38:54;20.65;;;12.15;;
801;SDS011;383;48.766;9.270;2022-09-24T03:41:22;20.65;;;12.50;;
801;SDS011;383;48.766;9.270;2022-09-24T03:43:49;21.58;;;12.98;;
801;SDS011;383;48.766;9.270;2022-09-24T03:46:16;19.40;;;12.15;;
801;SDS011;383;48.766;9.270;2022-09-24T03:48:43;23.98;;;12.82;;
801;SDS011;383;48.766;9.270;2022-09-24T03:51:11;28.08;;;13.63;;
801;SDS011;383;48.766;9.270;2022-09-24T03:53:39;24.85;;;13.13;;
801;SDS011;383;48.766;9.270;2022-09-24T03:56:08;18.63;;;12.45;;
801;SDS011;383;48.766;9.270;2022-09-24T03:58:36;23.20;;;13.77;;
801;SDS011;383;48.766;9.270;2022-09-24T04:01:03;21.67;;;14.25;;
801;SDS011;383;48.766;9.270;2022-09-24T04:03:30;20.70;;;13.48;;
801;SDS011;383;48.766;9.270;2022-09-24T04:05:57;22.92;;;12.93;;
801;SDS011;383;48.766;9.270;2022-09-24T04:08:24;20.88;;;11.90;;
801;SDS011;383;48.766;9.270;2022-09-24T04:10:51;22.52;;;12.57;;
801;SDS011;383;48.766;9.270;2022-09-24T04:13:20;24.52;;;13.63;;
801;SDS011;383;48.766;9.270;2022-09-24T04:15:47;20.92;;;13.10;;
801;SDS011;383;48.766;9.270;2022-09-24T04:18:15;19.30;;;12.48;;
801;SDS011;383;48.766;9.270;2022-09-24T04:20:42;20.08;;;13.00;;
801;SDS011;383;48.766;9.270;2022-09-24T04:23:09;21.55;;;13.13;;
801;SDS011;383;48.766;9.270;2022-09-24T04:25:36;19.13;;;12.40;;
801;SDS011;383;48.766;9.270;2022-09-24T04:28:04;22.23;;;13.40;;
801;SDS011;383;48.766;9.270;2022-09-24T04:30:34;23.05;;;12.70;;
801;SDS011;383;48.766;9.270;2022-09-24T04:33:02;21.70;;;12.90;;
801;SDS011;383;48.766;9.270;2022-09-24T04:35:29;18.30;;;12.60;;
801;SDS011;383;48.766;9.270;2022-09-24T04:37:57;24.38;;;13.40;;
801;SDS011;383;48.766;9.270;2022-09-24T04:40:25;21.02;;;14.40;;
801;SDS011;383;48.766;9.270;2022-09-24T04:42:52;20.80;;;13.55;;
801;SDS011;383;48.766;9.270;2022-09-24T04:45:19;23.95;;;13.65;;
801;SDS011;383;48.766;9.270;2022-09-24T04:47:50;19.77;;;12.80;;
801;SDS011;383;48.766;9.270;2022-09-24T04:50:21;28.15;;;13.35;;
801;SDS011;383;48.766;9.270;2022-09-24T04:52:49;22.17;;;14.13;;
801;SDS011;383;48.766;9.270;2022-09-24T04:55:15;21.60;;;13.02;;
801;SDS011;383;48.766;9.270;2022-09-24T04:57:44;23.40;;;13.85;;
801;SDS011;383;48.766;9.270;2022-09-24T05:00:12;25.42;;;13.13;;
801;SDS011;383;48.766;9.270;2022-09-24T05:02:42;23.17;;;13.20;;
801;SDS011;383;48.766;9.270;2022-09-24T05:05:11;19.17;;;11.85;;
801;SDS011;383;48.766;9.270;2022-09-24T05:07:38;18.08;;;12.40;;
801;SDS011;383;48.766;9.270;2022-09-24T05:10:06;19.67;;;12.20;;
801;SDS011;383;48.766;9.270;2022-09-24T05:12:33;17.90;;;11.50;;
801;SDS011;383;48.766;9.270;2022-09-24T05:15:00;18.70;;;12.48;;
801;SDS011;383;48.766;9.270;2022-09-24T05:17:27;24.52;;;12.82;;
801;SDS011;383;48.766;9.270;2022-09-24T05:19:54;18.27;;;12.15;;
801;SDS011;383;48.766;9.270;2022-09-24T05:22:23;19.02;;;12.70;;
801;SDS011;383;48.766;9.270;2022-09-24T05:24:51;21.15;;;13.05;;
801;SDS011;383;48.766;9.270;2022-09-24T05:27:18;23.63;;;12.95;;
801;SDS011;383;48.766;9.270;2022-09-24T05:29:45;22.90;;;13.00;;
801;SDS011;383;48.766;9.270;2022-09-24T05:32:13;18.42;;;12.63;;
801;SDS011;383;48.766;9.270;2022-09-24T05:34:42;26.58;;;13.98;;
801;SDS011;383;48.766;9.270;2022-09-24T05:37:09;28.30;;;13.60;;
801;SDS011;383;48.766;9.270;2022-09-24T05:39:38;24.27;;;13.70;;
801;SDS011;383;48.766;9.270;2022-09-24T05:42:05;22.42;;;12.02;;
801;SDS011;383;48.766;9.270;2022-09-24T05:44:34;29.85;;;13.55;;
801;SDS011;383;48.766;9.270;2022-09-24T05:47:02;22.20;;;12.27;;
801;SDS011;383;48.766;9.270;2022-09-24T05:49:28;16.45;;;11.43;;
801;SDS011;383;48.766;9.270;2022-09-24T05:51:56;19.40;;;12.70;;
801;SDS011;383;48.766;9.270;2022-09-24T05:54:23;19.42;;;12.43;;
801;SDS011;383;48.766;9.270;2022-09-24T05:56:51;19.02;;;11.90;;
801;SDS011;383;48.766;9.270;2022-09-24T05:59:17;15.07;;;10.65;;
801;SDS011;383;48.766;9.270;2022-09-24T06:01:44;18.77;;;12.73;;
801;SDS011;383;48.766;9.270;2022-09-24T06:04:12;21.48;;;11.07;;
801;SDS011;383;48.766;9.270;2022-09-24T06:06:38;19.60;;;12.38;;
801;SDS011;383;48.766;9.270;2022-09-24T06:09:05;17.85;;;11.75;;
801;SDS011;383;48.766;9.270;2022-09-24T06:11:33;24.48;;;12.82;;
801;SDS011;383;48.766;9.270;2022-09-24T06:14:02;18.50;;;12.85;;
801;SDS011;383;48.766;9.270;2022-09-24T06:16:30;23.25;;;12.38;;
801;SDS011;383;48.766;9.270;2022-09-24T06:18:57;20.53;;;11.57;;
801;SDS011;383;48.766;9.270;2022-09-24T06:21:24;22.70;;;12.60;;
801;SDS011;383;48.766;9.270;2022-09-24T06:23:51;20.47;;;11.73;;
801;SDS011;383;48.766;9.270;2022-09-24T06:26:17;14.13;;;10.80;;
801;SDS011;383;48.766;9.270;2022-09-24T06:28:44;17.27;;;12.00;;
801;SDS011;383;48.766;9.270;2022-09-24T06:31:12;17.70;;;12.33;;
801;SDS011;383;48.766;9.270;2022-09-24T06:33:39;16.10;;;10.37;;
801;SDS011;383;48.766;9.270;2022-09-24T06:36:06;18.63;;;12.07;;
801;SDS011;383;48.766;9.270;2022-09-24T06:38:33;15.30;;;11.33;;
801;SDS011;383;48.766;9.270;2022-09-24T06:41:01;22.70;;;11.27;;
801;SDS011;383;48.766;9.270;2022-09-24T06:43:29;19.00;;;11.13;;
801;SDS011;383;48.766;9.270;2022-09-24T06:45:56;19.30;;;11.40;;
801;SDS011;383;48.766;9.270;2022-09-24T06:48:26;16.17;;;10.40;;
801;SDS011;383;48.766;9.270;2022-09-24T06:50:53;19.13;;;10.00;;
801;SDS011;383;48.766;9.270;2022-09-24T06:53:21;16.40;;;10.40;;
801;SDS011;383;48.766;9.270;2022-09-24T06:55:47;16.37;;;10.40;;
801;SDS011;383;48.766;9.270;2022-09-24T06:58:15;14.47;;;10.40;;
801;SDS011;383;48.766;9.270;2022-09-24T07:00:48;23.03;;;10.07;;
801;SDS011;383;48.766;9.270;2022-09-24T07:03:18;17.00;;;10.43;;
801;SDS011;383;48.766;9.270;2022-09-24T07:05:47;13.23;;;9.00;;
801;SDS011;383;48.766;9.270;2022-09-24T07:08:14;16.97;;;10.57;;
801;SDS011;383;48.766;9.270;2022-09-24T07:10:41;18.40;;;10.57;;
801;SDS011;383;48.766;9.270;2022-09-24T07:13:09;18.57;;;10.30;;
801;SDS011;383;48.766;9.270;2022-09-24T07:15:40;17.27;;;10.03;;
801;SDS011;383;48.766;9.270;2022-09-24T07:18:09;18.53;;;11.10;;
801;SDS011;383;48.766;9.270;2022-09-24T07:20:37;14.87;;;9.77;;
801;SDS011;383;48.766;9.270;2022-09-24T07:23:05;15.73;;;11.10;;
801;SDS011;383;48.766;9.270;2022-09-24T07:25:33;16.30;;;10.17;;
801;SDS011;383;48.766;9.270;2022-09-24T07:28:00;15.53;;;10.73;;
801;SDS011;383;48.766;9.270;2022-09-24T07:30:28;17.20;;;10.47;;
801;SDS011;383;48.766;9.270;2022-09-24T07:32:55;14.10;;;10.07;;
801;SDS011;383;48.766;9.270;2022-09-24T07:35:22;16.57;;;11.93;;
801;SDS011;383;48.766;9.270;2022-09-24T07:37:54;17.30;;;11.03;;
801;SDS011;383;48.766;9.270;2022-09-24T07:40:24;17.80;;;10.53;;
801;SDS011;383;48.766;9.270;2022-09-24T07:42:51;13.40;;;8.97;;
801;SDS011;383;48.766;9.270;2022-09-24T07:45:19;13.07;;;10.00;;
801;SDS011;383;48.766;9.270;2022-09-24T07:47:46;16.93;;;10.27;;
801;SDS011;383;48.766;9.270;2022-09-24T07:50:13;17.23;;;10.60;;
801;SDS011;383;48.766;9.270;2022-09-24T07:52:41;20.07;;;10.20;;
801;SDS011;383;48.766;9.270;2022-09-24T07:55:09;15.00;;;9.87;;
801;SDS011;383;48.766;9.270;2022-09-24T07:57:37;13.70;;;9.20;;
801;SDS011;383;48.766;9.270;2022-09-24T08:00:04;13.17;;;9.70;;
801;SDS011;383;48.766;9.270;2022-09-24T08:02:32;14.50;;;10.07;;
801;SDS011;383;48.766;9.270;2022-09-24T08:04:58;16.70;;;10.40;;
801;SDS011;383;48.766;9.270;2022-09-24T08:07:26;19.87;;;9.67;;
801;SDS011;383;48.766;9.270;2022-09-24T08:09:53;16.73;;;9.57;;
801;SDS011;383;48.766;9.270;2022-09-24T08:12:19;16.70;;;9.87;;
801;SDS011;383;48.766;9.270;2022-09-24T08:14:47;12.53;;;10.37;;
801;SDS011;383;48.766;9.270;2022-09-24T08:17:15;19.13;;;10.53;;
801;SDS011;383;48.766;9.270;2022-09-24T08:19:41;20.43;;;10.27;;
801;SDS011;383;48.766;9.270;2022-09-24T08:22:10;15.53;;;10.30;;
801;SDS011;383;48.766;9.270;2022-09-24T08:24:38;17.10;;;10.57;;
801;SDS011;383;48.766;9.270;2022-09-24T08:27:05;16.90;;;10.43;;
801;SDS011;383;48.766;9.270;2022-09-24T08:29:31;18.40;;;10.00;;
801;SDS011;383;48.766;9.270;2022-09-24T08:32:00;14.80;;;10.50;;
801;SDS011;383;48.766;9.270;2022-09-24T08:34:26;17.53;;;10.57;;
801;SDS011;383;48.766;9.270;2022-09-24T08:36:53;16.03;;;9.40;;
801;SDS011;383;48.766;9.270;2022-09-24T08:39:20;13.97;;;9.83;;
801;SDS011;383;48.766;9.270;2022-09-24T08:41:50;14.60;;;10.60;;
801;SDS011;383;48.766;9.270;2022-09-24T08:44:22;20.57;;;10.17;;
801;SDS011;383;48.766;9.270;2022-09-24T08:47:14;20.20;;;10.83;;
801;SDS011;383;48.766;9.270;2022-09-24T08:49:56;15.90;;;10.57;;
801;SDS011;383;48.766;9.270;2022-09-24T08:52:29;14.93;;;9.70;;
801;SDS011;383;48.766;9.270;2022-09-24T08:55:11;14.67;;;9.60;;
801;SDS011;383;48.766;9.270;2022-09-24T08:57:48;14.40;;;9.93;;
801;SDS011;383;48.766;9.270;2022-09-24T09:00:19;13.10;;;8.90;;
801;SDS011;383;48.766;9.270;2022-09-24T09:02:50;22.17;;;9.47;;
801;SDS011;383;48.766;9.270;2022-09-24T09:05:26;15.17;;;8.40;;
801;SDS011;383;48.766;9.270;2022-09-24T09:08:10;13.07;;;8.10;;
801;SDS011;383;48.766;9.270;2022-09-24T09:10:42;16.07;;;9.50;;
801;SDS011;383;48.766;9.270;2022-09-24T09:13:10;20.60;;;9.80;;
801;SDS011;383;48.766;9.270;2022-09-24T09:15:41;23.47;;;9.03;;
801;SDS011;383;48.766;9.270;2022-09-24T09:18:15;15.20;;;8.23;;
801;SDS011;383;48.766;9.270;2022-09-24T09:20:47;17.47;;;8.23;;
801;SDS011;383;48.766;9.270;2022-09-24T09:23:15;11.40;;;6.87;;
801;SDS011;383;48.766;9.270;2022-09-24T09:25:45;10.80;;;5.60;;
801;SDS011;383;48.766;9.270;2022-09-24T09:28:17;10.83;;;6.03;;
801;SDS011;383;48.766;9.270;2022-09-24T09:30:47;6.83;;;5.30;;
801;SDS011;383;48.766;9.270;2022-09-24T09:33:31;9.10;;;5.90;;
801;SDS011;383;48.766;9.270;2022-09-24T09:36:13;8.30;;;5.50;;
801;SDS011;383;48.766;9.270;2022-09-24T09:38:52;9.97;;;5.77;;
801;SDS011;383;48.766;9.270;2022-09-24T09:41:27;14.27;;;7.13;;
801;SDS011;383;48.766;9.270;2022-09-24T09:44:00;7.10;;;4.77;;
801;SDS011;383;48.766;9.270;2022-09-24T09:46:36;10.67;;;7.03;;
801;SDS011;383;48.766;9.270;2022-09-24T09:49:10;9.90;;;5.87;;
801;SDS011;383;48.766;9.270;2022-09-24T09:51:39;10.00;;;5.80;;
801;SDS011;383;48.766;9.270;2022-09-24T09:54:07;11.30;;;4.80;;
801;SDS011;383;48.766;9.270;2022-09-24T09:56:35;5.43;;;4.50;;
801;SDS011;383;48.766;9.270;2022-09-24T09:59:14;7.37;;;4.77;;
801;SDS011;383;48.766;9.270;2022-09-24T10:01:44;6.47;;;5.20;;
801;SDS011;383;48.766;9.270;2022-09-24T10:04:22;11.30;;;6.93;;
801;SDS011;383;48.766;9.270;2022-09-24T10:07:04;8.60;;;6.27;;
801;SDS011;383;48.766;9.270;2022-09-24T10:09:33;8.30;;;6.13;;
801;SDS011;383;48.766;9.270;2022-09-24T10:12:13;13.20;;;6.30;;
801;SDS011;383;48.766;9.270;2022-09-24T10:14:42;12.47;;;5.63;;
801;SDS011;383;48.766;9.270;2022-09-24T10:17:10;8.73;;;5.40;;
801;SDS011;383;48.766;9.270;2022-09-24T10:19:41;7.50;;;5.50;;
801;SDS011;383;48.766;9.270;2022-09-24T10:22:13;6.03;;;5.20;;
801;SDS011;383;48.766;9.270;2022-09-24T10:24:45;8.97;;;5.50;;
801;SDS011;383;48.766;9.270;2022-09-24T10:27:12;10.37;;;5.50;;
801;SDS011;383;48.766;9.270;2022-09-24T10:29:46;6.13;;;4.73;;
801;SDS011;383;48.766;9.270;2022-09-24T10:32:30;8.23;;;5.20;;
801;SDS011;383;48.766;9.270;2022-09-24T10:34:59;10.80;;;5.63;;
801;SDS011;383;48.766;9.270;2022-09-24T10:37:27;5.90;;;4.87;;
801;SDS011;383;48.766;9.270;2022-09-24T10:39:57;7.10;;;5.10;;
801;SDS011;383;48.766;9.270;2022-09-24T10:42:25;7.43;;;4.93;;
801;SDS011;383;48.766;9.270;2022-09-24T10:44:53;6.97;;;4.57;;
801;SDS011;383;48.766;9.270;2022-09-24T10:47:24;7.00;;;5.10;;
801;SDS011;383;48.766;9.270;2022-09-24T10:50:05;6.57;;;4.30;;
801;SDS011;383;48.766;9.270;2022-09-24T10:52:43;5.93;;;4.10;;
801;SDS011;383;48.766;9.270;2022-09-24T10:55:29;9.27;;;3.80;;
801;SDS011;383;48.766;9.270;2022-09-24T10:58:06;6.63;;;3.80;;
801;SDS011;383;48.766;9.270;2022-09-24T11:00:48;6.50;;;3.97;;
801;SDS011;383;48.766;9.270;2022-09-24T11:03:27;8.00;;;3.60;;
801;SDS011;383;48.766;9.270;2022-09-24T11:06:16;5.77;;;3.90;;
801;SDS011;383;48.766;9.270;2022-09-24T11:08:55;6.07;;;4.30;;
801;SDS011;383;48.766;9.270;2022-09-24T11:11:33;6.23;;;4.47;;
801;SDS011;383;48.766;9.270;2022-09-24T11:14:19;5.33;;;3.93;;
801;SDS011;383;48.766;9.270;2022-09-24T11:16:59;6.03;;;3.97;;
801;SDS011;383;48.766;9.270;2022-09-24T11:20:00;5.03;;;4.00;;
801;SDS011;383;48.766;9.270;2022-09-24T11:22:53;8.80;;;3.80;;
801;SDS011;383;48.766;9.270;2022-09-24T11:25:39;7.17;;;4.20;;
801;SDS011;383;48.766;9.270;2022-09-24T11:28:18;7.63;;;4.50;;
801;SDS011;383;48.766;9.270;2022-09-24T11:30:57;7.80;;;4.27;;
801;SDS011;383;48.766;9.270;2022-09-24T11:33:36;6.97;;;4.10;;
801;SDS011;383;48.766;9.270;2022-09-24T11:36:25;8.50;;;4.30;;
801;SDS011;383;48.766;9.270;2022-09-24T11:39:06;11.03;;;5.13;;
801;SDS011;383;48.766;9.270;2022-09-24T11:41:46;7.10;;;4.63;;
801;SDS011;383;48.766;9.270;2022-09-24T11:44:23;7.70;;;4.43;;
801;SDS011;383;48.766;9.270;2022-09-24T11:47:19;5.10;;;4.63;;
801;SDS011;383;48.766;9.270;2022-09-24T11:50:09;7.20;;;3.90;;
801;SDS011;383;48.766;9.270;2022-09-24T11:52:43;6.70;;;3.90;;
801;SDS011;383;48.766;9.270;2022-09-24T11:55:15;5.23;;;3.83;;
801;SDS011;383;48.766;9.270;2022-09-24T11:57:46;6.20;;;3.80;;
801;SDS011;383;48.766;9.270;2022-09-24T12:00:18;5.80;;;4.07;;
801;SDS011;383;48.766;9.270;2022-09-24T12:02:46;6.77;;;4.77;;
801;SDS011;383;48.766;9.270;2022-09-24T12:05:18;8.23;;;3.70;;
801;SDS011;383;48.766;9.270;2022-09-24T12:07:52;5.20;;;3.90;;
801;SDS011;383;48.766;9.270;2022-09-24T12:10:28;7.13;;;3.50;;
801;SDS011;383;48.766;9.270;2022-09-24T12:13:02;4.27;;;3.40;;
801;SDS011;383;48.766;9.270;2022-09-24T12:15:40;5.93;;;4.27;;
801;SDS011;383;48.766;9.270;2022-09-24T12:18:11;6.50;;;3.97;;
801;SDS011;383;48.766;9.270;2022-09-24T12:20:44;5.77;;;3.73;;
801;SDS011;383;48.766;9.270;2022-09-24T12:23:15;9.30;;;5.60;;
801;SDS011;383;48.766;9.270;2022-09-24T12:25:47;5.23;;;4.10;;
801;SDS011;383;48.766;9.270;2022-09-24T12:28:15;5.63;;;4.20;;
801;SDS011;383;48.766;9.270;2022-09-24T12:30:59;9.60;;;4.77;;
801;SDS011;383;48.766;9.270;2022-09-24T12:33:50;6.80;;;4.73;;
801;SDS011;383;48.766;9.270;2022-09-24T12:36:25;6.03;;;4.60;;
801;SDS011;383;48.766;9.270;2022-09-24T12:39:02;8.30;;;4.83;;
801;SDS011;383;48.766;9.270;2022-09-24T12:41:34;10.93;;;5.40;;
801;SDS011;383;48.766;9.270;2022-09-24T12:44:04;6.70;;;4.90;;
801;SDS011;383;48.766;9.270;2022-09-24T12:46:40;7.60;;;5.20;;
801;SDS011;383;48.766;9.270;2022-09-24T12:49:14;6.30;;;4.67;;
801;SDS011;383;48.766;9.270;2022-09-24T12:51:44;8.30;;;5.37;;
801;SDS011;383;48.766;9.270;2022-09-24T12:54:18;8.53;;;5.70;;
801;SDS011;383;48.766;9.270;2022-09-24T12:56:53;8.17;;;5.47;;
801;SDS011;383;48.766;9.270;2022-09-24T12:59:31;9.00;;;5.40;;
801;SDS011;383;48.766;9.270;2022-09-24T13:02:05;7.60;;;5.50;;
801;SDS011;383;48.766;9.270;2022-09-24T13:04:42;8.60;;;6.57;;
801;SDS011;383;48.766;9.270;2022-09-24T13:09:55;13.33;;;7.27;;
801;SDS011;383;48.766;9.270;2022-09-24T13:12:28;8.83;;;6.03;;
801;SDS011;383;48.766;9.270;2022-09-24T13:14:57;9.33;;;6.00;;
801;SDS011;383;48.766;9.270;2022-09-24T13:17:26;15.27;;;8.17;;
801;SDS011;383;48.766;9.270;2022-09-24T13:19:55;12.70;;;6.70;;
801;SDS011;383;48.766;9.270;2022-09-24T13:22:25;9.70;;;5.93;;
801;SDS011;383;48.766;9.270;2022-09-24T13:25:04;15.50;;;8.43;;
801;SDS011;383;48.766;9.270;2022-09-24T13:27:53;12.70;;;7.57;;
801;SDS011;383;48.766;9.270;2022-09-24T13:30:30;17.70;;;9.30;;
801;SDS011;383;48.766;9.270;2022-09-24T13:33:02;15.47;;;8.40;;
801;SDS011;383;48.766;9.270;2022-09-24T13:35:42;15.93;;;7.77;;
801;SDS011;383;48.766;9.270;2022-09-24T13:38:15;12.93;;;8.10;;
801;SDS011;383;48.766;9.270;2022-09-24T13:40:47;12.50;;;8.00;;
801;SDS011;383;48.766;9.270;2022-09-24T13:43:22;11.37;;;7.43;;
801;SDS011;383;48.766;9.270;2022-09-24T13:46:00;23.00;;;10.20;;
801;SDS011;383;48.766;9.270;2022-09-24T13:48:32;29.33;;;13.87;;
801;SDS011;383;48.766;9.270;2022-09-24T13:51:01;24.67;;;11.90;;
801;SDS011;383;48.766;9.270;2022-09-24T13:53:30;27.40;;;12.30;;
801;SDS011;383;48.766;9.270;2022-09-24T13:56:03;14.70;;;8.10;;
801;SDS011;383;48.766;9.270;2022-09-24T13:58:38;11.07;;;7.03;;
801;SDS011;383;48.766;9.270;2022-09-24T14:01:09;9.80;;;6.13;;
801;SDS011;383;48.766;9.270;2022-09-24T14:03:38;10.80;;;7.40;;
801;SDS011;383;48.766;9.270;2022-09-24T14:06:10;10.10;;;6.40;;
801;SDS011;383;48.766;9.270;2022-09-24T14:08:39;12.33;;;7.27;;
801;SDS011;383;48.766;9.270;2022-09-24T14:11:12;11.40;;;7.20;;
801;SDS011;383;48.766;9.270;2022-09-24T14:13:43;12.13;;;7.57;;
801;SDS011;383;48.766;9.270;2022-09-24T14:16:13;9.87;;;7.17;;
801;SDS011;383;48.766;9.270;2022-09-24T14:18:41;9.00;;;6.40;;
801;SDS011;383;48.766;9.270;2022-09-24T14:21:09;9.33;;;7.40;;
801;SDS011;383;48.766;9.270;2022-09-24T14:23:40;12.00;;;7.00;;
801;SDS011;383;48.766;9.270;2022-09-24T14:26:09;8.97;;;6.70;;
801;SDS011;383;48.766;9.270;2022-09-24T14:28:43;15.93;;;8.17;;
801;SDS011;383;48.766;9.270;2022-09-24T14:31:10;11.63;;;7.40;;
801;SDS011;383;48.766;9.270;2022-09-24T14:33:37;11.63;;;7.50;;
801;SDS011;383;48.766;9.270;2022-09-24T14:36:08;13.90;;;8.90;;
801;SDS011;383;48.766;9.270;2022-09-24T14:38:41;8.40;;;6.80;;
801;SDS011;383;48.766;9.270;2022-09-24T14:41:14;9.53;;;7.13;;
801;SDS011;383;48.766;9.270;2022-09-24T14:43:46;14.23;;;7.97;;
801;SDS011;383;48.766;9.270;2022-09-24T14:46:17;8.07;;;6.20;;
801;SDS011;383;48.766;9.270;2022-09-24T14:48:48;14.40;;;7.97;;
801;SDS011;383;48.766;9.270;2022-09-24T14:51:20;10.13;;;6.70;;
801;SDS011;383;48.766;9.270;2022-09-24T14:53:55;14.47;;;7.70;;
801;SDS011;383;48.766;9.270;2022-09-24T14:56:25;13.30;;;7.67;;
801;SDS011;383;48.766;9.270;2022-09-24T14:58:55;11.57;;;6.87;;
801;SDS011;383;48.766;9.270;2022-09-24T15:01:22;13.03;;;8.00;;
801;SDS011;383;48.766;9.270;2022-09-24T15:03:55;11.67;;;8.40;;
801;SDS011;383;48.766;9.270;2022-09-24T15:06:24;11.20;;;7.40;;
801;SDS011;383;48.766;9.270;2022-09-24T15:08:57;10.60;;;7.20;;
801;SDS011;383;48.766;9.270;2022-09-24T15:11:26;8.77;;;6.53;;
801;SDS011;383;48.766;9.270;2022-09-24T15:13:58;10.20;;;7.40;;
801;SDS011;383;48.766;9.270;2022-09-24T15:16:31;10.80;;;7.80;;
801;SDS011;383;48.766;9.270;2022-09-24T15:19:14;11.30;;;7.37;;
801;SDS011;383;48.766;9.270;2022-09-24T15:21:44;10.70;;;7.30;;
801;SDS011;383;48.766;9.270;2022-09-24T15:24:12;12.50;;;7.43;;
801;SDS011;383;48.766;9.270;2022-09-24T15:26:39;11.30;;;7.53;;
801;SDS011;383;48.766;9.270;2022-09-24T15:29:09;12.90;;;9.93;;
801;SDS011;383;48.766;9.270;2022-09-24T15:31:48;15.13;;;9.37;;
801;SDS011;383;48.766;9.270;2022-09-24T15:34:14;15.40;;;9.07;;
801;SDS011;383;48.766;9.270;2022-09-24T15:36:41;15.00;;;9.83;;
801;SDS011;383;48.766;9.270;2022-09-24T15:39:08;14.80;;;9.10;;
801;SDS011;383;48.766;9.270;2022-09-24T15:41:35;15.97;;;10.10;;
801;SDS011;383;48.766;9.270;2022-09-24T15:44:02;20.30;;;9.73;;
801;SDS011;383;48.766;9.270;2022-09-24T15:46:32;15.70;;;9.87;;
801;SDS011;383;48.766;9.270;2022-09-24T15:48:59;16.50;;;9.70;;
801;SDS011;383;48.766;9.270;2022-09-24T15:51:25;15.23;;;9.97;;
801;SDS011;383;48.766;9.270;2022-09-24T15:53:53;12.50;;;8.60;;
801;SDS011;383;48.766;9.270;2022-09-24T15:56:20;13.73;;;8.10;;